Scanlon, Minnesota
Current Conditions -  °F | °C
As of 12:56 AM on Sunday 21 Dec 2014 (Local Time) from KCOQ Reporting Station
Haze Haze  
Wind Chill: 20°   Ceiling: 800
Heat Index: 28°   Visibility: 5mi
Dew Point: 27°   Wind: 9mph
Humidity: 93%   Direction: 180°S
Pressure: 30"   Gusts: NA
Location:  46.7232°N, 92.5588°W
Report Text: KCOQ 210656Z AUTO 18008KT 152V212 5SM BR OVC008 M02/M03 A3000 RMK AO2
Loading
Personal Weather Stations






























Interactive Weather Map New forecast layout! Learn more

10-Day Weather Forecast

Advertisements
Track Severe Weather on mobile